Piona logo

Wyniki

Jarosławska Piona (trasa rezerwowa)
#192
Wielkanocna

Dystans:5 km
Data:2018-03-31 (sobota)
Godzina:09:00
Miejscowość:Jarosław
Lokalizacja:Obwodnica Jaroslawia - Zobacz trasę
Adres:Droga serwisowa na wysokosci osiedla Slonecznego
Współrzędne GPS:50.0133, 22.7044 - Sprawdż na Google Maps
Wpisowe:brak
Liczba uczestników:27
Sędzia:Jacek MAŚLANKA
Status:Zawody zakończone

OpenNumerKrajImięNazwiskoPłećR. ur.KMKategoria# KatMiejscowośćRezultat
[hh:mm:ss]
Tempo
[min/km]
1P561POLPolandPawełKMIECIKM19881M30-391Pawłosiów00:20:1204:02
2P143POLPolandMaciejOSTROWSKIM19882M30-392Jarosław00:20:1304:03
3P559POLPolandPawełJAKUSZEWSKIM19873M30-393Jarosław00:20:2104:04
4P518POLPolandKamilMOTYKAM19844M30-394Jarosław00:20:3104:06
5P304POLPolandMichałNASPIŃSKIM19965M20-291Wiązownica00:21:1204:14
6P500POLPolandAndrzejTRZONEKM19646M50-591Jarosław00:22:3204:30
7P125POLPolandAndrzejGWÓŹDŹM19687M50-592Jarosław00:22:3204:30
8P194POLPolandMartaORONOWICZK19691K40-491Munina00:22:3904:32
9P494POLPolandJerzyOŻGAM19878M30-395Szówsko00:23:1404:39
10P479POLPolandMarcinKRUBAM19879M30-396Jarosław00:23:1704:39
11P554POLPolandAdamZAMORSKIM197610M40-491Cetula00:24:1004:50
12P488POLPolandMarekPŁOCICAM197011M40-492Jarosław00:24:3504:55
13P557POLPolandRomanKWOKAM198612M30-397Bobrówka00:25:0905:02
14P531POLPolandRyszardWILKM197313M40-493Jarosław00:25:5705:11
15P546POLPolandRafałŚWIDERSKIM197414M40-494Jarosław00:26:1105:14
16P465POLPolandPawełJOPM197715M40-495Jarosław00:26:4805:22
17P257POLPolandEwaSZYMAŃSKAK19642K50-591Jarosław00:27:0105:24
18P538POLPolandLucjanSZABLANM198316M30-398Jarosław00:27:0705:25
19P492POLPolandWiolettaSZABLANK19803K30-391JAROSLAW00:27:1605:27
20P533POLPolandMarcinIDZIKM198417M30-399Bystrowice00:27:2205:28
21P549POLPolandAndrzejPOPOWICZM199018M20-292jaroslaw00:27:2305:29
22P441POLPolandBernadettaWASYLISZYNK19864K30-392Jarosław00:28:1605:39
23P199POLPolandPiotrDUBANIKM196119M50-593Munina00:29:0305:49
24P496POLPolandPaweł WOJCIECHOWSKIM198920M20-293Jarosław00:30:2006:04
25P555POLPolandIwonaSKRZYPSKAK19795K30-393Jarosław00:30:5806:12
26P562POLPolandDariuszKANJERSKIM196421M50-594Jarosław00:31:4706:21
27P391POLPolandMaciejBOROWIECM198422M30-3910Jarosław00:32:0306:25

Jeśli widzisz błąd w wynikach prosimy o kontakt.

© 2014 Piona
Przemyśl Jarosławska Grupa Biegowa SOKÓŁ
Piona ikona